Etusivu
METAR-TAF:

METAR-TAF

Lentoasemat :

Rønne, Tanska

Leveyspiiri: 55-04N, Pituuspiiri: 014-45E, korkeus merenpinnasta: 16 m

Tämänhetkinen sää

Tämä raportti tehtiin 31 minuuttia sitten, kello 23.20 UTC
Tuuli 14 kn idästä
Lämpötila 3°C
Kosteus 75%
Ilmanpaine 1026 hPa
Näkyvyys 10 km tai enemmän

METAR: EKRN 202320Z AUTO 10014KT 9999NDV NCD 03/M01 Q1026

Aika: 00:51 (23:51 UTC)

Sääennuste

Tämä raportti tehtiin 6 tuntia ja 47 minuuttia sitten, kello 17.04 UTC
Ennuste voimassa 20. päivästä klo 18 UTC - 20. päivään klo 23 UTC
Tuuli 15 kn idästä
Näkyvyys 10 km tai enemmän
Hajonneita pilviä 2000 ft:n korkeudessa

TAF: EKRN 201704Z 2018/2023 10015KT 9999 BKN020

Säähavainnot ja -ennusteet yli 4000 lentoasemalta (METAR- ja TAF-raportit).

Käytössä olevat sääasemat on merkitty karttaan keltaisilla ja punaisilla pisteillä.

Aseta hiiri pisteen päälle nähdäksesi sääaseman nimen.

Klikkaa sitten nähdäksesi säähavainnot ja -ennusteet.

Kartan vaihtaminen: klikkaa mustalla rastilla varustettuja vihreitä pisteitä, niin voit zoomata sisään; viivalla varustettua vihreää pistettä, niin voit zoomata ulos tai vihreitä nuolia, niin pääset viereisille kartoille.


METAR-TAF: